Altamont, Illinois
Current Conditions -  °F | °C
As of 12:35 PM on Monday 20 Oct 2014 (Local Time) from K1H2 Reporting Station
Clear Clear  
Wind Chill: 69°   Ceiling: Unl
Heat Index: 69°   Visibility: 10mi
Dew Point: 47°   Wind: 10mph
Humidity: 45%   Direction: 290°WNW
Pressure: 29.92"   Gusts: 22mph
Location:  39.06°N, 88.75°W
Report Text: K1H2 201735Z AUTO 29009G19KT 10SM CLR 21/08 A2992 RMK AO2 T02070082
Loading
Personal Weather Stations






























Interactive Weather Map
Tropical Storm Tracking
New forecast layout! Learn more

10-Day Weather Forecast

Advertisements
Track Severe Weather on mobile